createdAt,value
2019-05-22T00:01:25.668Z,19.70
2019-05-22T00:03:59.394Z,19.17
2019-05-22T00:06:39.764Z,21.93
2019-05-22T00:09:23.218Z,19.63
2019-05-22T00:11:56.155Z,18.00
2019-05-22T00:14:30.676Z,17.43
2019-05-22T00:17:03.196Z,17.73
2019-05-22T00:19:34.248Z,19.13
2019-05-22T00:22:11.738Z,18.20
2019-05-22T00:24:46.115Z,19.13
2019-05-22T00:27:19.874Z,20.30
2019-05-22T00:29:53.254Z,19.40
2019-05-22T00:32:27.536Z,18.97
2019-05-22T00:34:59.011Z,17.63
2019-05-22T00:37:31.483Z,17.00
2019-05-22T00:40:05.346Z,18.87
2019-05-22T00:42:38.334Z,19.10
2019-05-22T00:45:13.071Z,19.10
2019-05-22T00:47:45.533Z,18.67
2019-05-22T00:50:21.515Z,18.83
2019-05-22T00:53:10.083Z,18.13
2019-05-22T00:56:00.492Z,19.07
2019-05-22T00:58:36.288Z,17.23
2019-05-22T01:01:32.804Z,18.60
2019-05-22T01:04:07.654Z,18.10
2019-05-22T01:06:39.041Z,15.50
2019-05-22T01:09:17.962Z,17.50
2019-05-22T01:11:49.044Z,19.10
2019-05-22T01:14:21.408Z,16.10
2019-05-22T01:16:52.546Z,16.40
2019-05-22T01:19:25.074Z,21.87
2019-05-22T01:21:56.632Z,20.13
2019-05-22T01:24:28.731Z,19.77
2019-05-22T01:27:00.105Z,19.93
2019-05-22T01:29:33.149Z,19.67
2019-05-22T01:32:17.250Z,20.87
2019-05-22T01:34:48.839Z,22.80
2019-05-22T01:37:21.083Z,18.00
2019-05-22T01:39:58.813Z,18.17
2019-05-22T01:42:40.014Z,16.77
2019-05-22T01:45:14.140Z,17.80
2019-05-22T01:48:00.407Z,18.83
2019-05-22T01:50:53.804Z,18.73
2019-05-22T01:53:33.000Z,18.97
2019-05-22T01:56:08.342Z,19.23
2019-05-22T01:58:42.687Z,18.30
2019-05-22T02:01:21.061Z,18.97
2019-05-22T02:03:54.959Z,18.90
2019-05-22T02:06:28.723Z,18.33
2019-05-22T02:09:21.232Z,18.30
2019-05-22T02:11:57.327Z,19.87
2019-05-22T02:14:30.121Z,19.00
2019-05-22T02:17:01.401Z,21.40
2019-05-22T02:19:33.253Z,17.33
2019-05-22T02:22:05.268Z,23.37
2019-05-22T02:24:39.565Z,22.30
2019-05-22T02:27:12.706Z,29.50
2019-05-22T02:29:44.986Z,20.90
2019-05-22T02:32:18.109Z,19.23
2019-05-22T02:34:49.281Z,18.93
2019-05-22T02:37:22.216Z,17.00
2019-05-22T02:39:56.060Z,18.40
2019-05-22T02:42:33.321Z,18.60
2019-05-22T02:45:05.367Z,18.50
2019-05-22T02:47:38.436Z,17.00
2019-05-22T02:50:10.946Z,19.93
2019-05-22T02:52:43.059Z,21.30
2019-05-22T02:55:15.959Z,22.17
2019-05-22T02:57:47.070Z,19.77
2019-05-22T03:00:20.080Z,20.80
2019-05-22T03:02:53.917Z,20.23
2019-05-22T03:05:27.032Z,18.27
2019-05-22T03:07:59.520Z,20.53
2019-05-22T03:10:30.725Z,16.93
2019-05-22T03:13:04.470Z,17.20
2019-05-22T03:15:35.748Z,18.10
2019-05-22T03:18:08.899Z,18.63
2019-05-22T03:20:42.057Z,17.27
2019-05-22T03:23:36.608Z,17.73
2019-05-22T03:26:10.774Z,18.10
2019-05-22T03:28:42.263Z,18.40
2019-05-22T03:31:14.003Z,21.77
2019-05-22T03:33:45.774Z,19.63
2019-05-22T03:36:21.464Z,19.43
2019-05-22T03:38:53.400Z,20.27
2019-05-22T03:41:25.422Z,19.53
2019-05-22T03:43:58.632Z,19.90
2019-05-22T03:46:43.744Z,20.00
2019-05-22T03:49:29.696Z,19.00
2019-05-22T03:51:52.832Z,18.27
2019-05-22T03:54:26.041Z,20.43
2019-05-22T03:56:57.199Z,21.63
2019-05-22T03:59:29.020Z,18.60
2019-05-22T04:02:00.797Z,19.33
2019-05-22T04:04:39.203Z,19.57
2019-05-22T04:07:17.380Z,17.87
2019-05-22T04:09:51.995Z,18.43
2019-05-22T04:12:24.953Z,17.47
2019-05-22T04:14:56.665Z,16.83
2019-05-22T04:17:28.978Z,18.80
2019-05-22T04:20:00.398Z,19.17
2019-05-22T04:22:31.363Z,18.77
2019-05-22T04:25:02.155Z,16.93
2019-05-22T04:27:33.683Z,19.33
2019-05-22T04:30:08.757Z,17.27
2019-05-22T04:32:42.918Z,14.47
2019-05-22T04:35:17.997Z,16.83
2019-05-22T04:37:50.887Z,14.60
2019-05-22T04:40:58.276Z,14.63
2019-05-22T04:43:34.408Z,17.17
2019-05-22T04:46:10.405Z,16.23
2019-05-22T04:48:45.812Z,14.03
2019-05-22T04:51:31.202Z,15.17
2019-05-22T04:54:02.280Z,15.67
2019-05-22T04:56:35.157Z,15.00
2019-05-22T04:59:07.046Z,14.10
2019-05-22T05:01:38.934Z,14.37
2019-05-22T05:04:10.960Z,12.20
2019-05-22T05:06:55.491Z,11.87
2019-05-22T05:09:26.933Z,11.33
2019-05-22T05:11:59.230Z,11.30
2019-05-22T05:14:34.693Z,11.17
2019-05-22T05:17:07.608Z,10.70
2019-05-22T05:19:39.747Z,11.13
2019-05-22T05:22:12.294Z,11.07
2019-05-22T05:24:43.685Z,11.63
2019-05-22T05:27:14.919Z,11.07
2019-05-22T05:29:53.262Z,10.40
2019-05-22T05:32:24.771Z,10.70
2019-05-22T05:35:05.711Z,10.73
2019-05-22T05:37:38.577Z,10.03
2019-05-22T05:40:36.657Z,9.63
2019-05-22T05:43:10.300Z,9.87
2019-05-22T05:45:43.533Z,10.53
2019-05-22T05:48:24.114Z,9.87
2019-05-22T05:51:29.291Z,9.97
2019-05-22T05:54:08.969Z,10.17
2019-05-22T05:56:41.037Z,9.50
2019-05-22T05:59:14.168Z,8.83
2019-05-22T06:01:53.324Z,9.93
2019-05-22T06:04:38.309Z,9.97
2019-05-22T06:07:23.350Z,9.40
2019-05-22T06:10:41.074Z,9.10
2019-05-22T06:13:15.166Z,9.60
2019-05-22T06:16:29.381Z,9.57
2019-05-22T06:19:01.156Z,8.90
2019-05-22T06:21:34.127Z,8.93
2019-05-22T06:24:25.583Z,9.07
2019-05-22T06:27:41.711Z,9.50
2019-05-22T06:30:18.395Z,9.03
2019-05-22T06:33:29.765Z,8.50
2019-05-22T06:36:05.177Z,8.73
2019-05-22T06:39:10.123Z,8.93
2019-05-22T06:41:43.218Z,8.43
2019-05-22T06:44:41.916Z,9.03
2019-05-22T06:47:26.777Z,8.37
2019-05-22T06:49:59.514Z,8.50
2019-05-22T06:52:31.354Z,8.17
2019-05-22T06:55:02.931Z,7.97
2019-05-22T06:57:35.134Z,8.33
2019-05-22T07:00:22.225Z,7.77
2019-05-22T07:02:53.926Z,7.83
2019-05-22T07:05:26.158Z,7.43
2019-05-22T07:07:58.327Z,7.80
2019-05-22T07:10:30.647Z,7.77
2019-05-22T07:13:03.919Z,7.30
2019-05-22T07:15:54.091Z,8.10
2019-05-22T07:18:29.119Z,7.00
2019-05-22T07:21:00.357Z,6.73
2019-05-22T07:23:33.141Z,7.33
2019-05-22T07:26:06.257Z,7.30
2019-05-22T07:28:38.074Z,7.13
2019-05-22T07:31:09.738Z,8.10
2019-05-22T07:33:41.214Z,6.30
2019-05-22T07:36:17.114Z,6.50
2019-05-22T07:38:48.368Z,7.30
2019-05-22T07:41:21.399Z,6.00
2019-05-22T07:43:52.953Z,6.63
2019-05-22T07:46:24.304Z,6.30
2019-05-22T07:48:55.216Z,6.00
2019-05-22T07:51:27.288Z,5.60
2019-05-22T07:53:59.641Z,5.47
2019-05-22T07:56:31.347Z,5.77
2019-05-22T07:59:02.569Z,6.33
2019-05-22T08:01:34.899Z,6.30
2019-05-22T08:04:07.672Z,6.17
2019-05-22T08:06:41.733Z,6.00
2019-05-22T08:09:14.568Z,7.00
2019-05-22T08:11:47.253Z,6.70
2019-05-22T08:14:19.633Z,6.80
2019-05-22T08:16:50.980Z,6.23
2019-05-22T08:19:24.366Z,6.90
2019-05-22T08:22:06.985Z,6.20
2019-05-22T08:24:30.296Z,6.50
2019-05-22T08:27:02.098Z,6.03
2019-05-22T08:29:34.046Z,6.63
2019-05-22T08:32:07.177Z,6.30
2019-05-22T08:34:40.200Z,6.33
2019-05-22T08:37:14.581Z,6.70
2019-05-22T08:39:47.252Z,5.80
2019-05-22T08:42:20.404Z,5.97
2019-05-22T08:44:52.441Z,5.93
2019-05-22T08:47:24.773Z,6.77
2019-05-22T08:49:56.556Z,6.80
2019-05-22T08:52:30.821Z,6.90
2019-05-22T08:55:04.914Z,6.30
2019-05-22T08:57:37.437Z,6.80
2019-05-22T09:00:12.541Z,6.53
2019-05-22T09:02:45.162Z,6.50
2019-05-22T09:05:20.994Z,6.87
2019-05-22T09:07:50.322Z,6.00
2019-05-22T09:10:25.995Z,6.43
2019-05-22T09:12:56.410Z,7.20
2019-05-22T09:15:29.527Z,6.20
2019-05-22T09:18:01.500Z,5.30
2019-05-22T09:20:48.080Z,5.40
2019-05-22T09:23:09.170Z,5.50
2019-05-22T09:25:41.405Z,5.73
2019-05-22T09:28:13.670Z,6.20
2019-05-22T09:30:45.432Z,6.47
2019-05-22T09:33:18.882Z,7.40
2019-05-22T09:35:51.084Z,6.20
2019-05-22T09:38:22.745Z,6.33
2019-05-22T09:40:55.591Z,5.87
2019-05-22T09:43:27.451Z,5.43
2019-05-22T09:45:58.616Z,5.37
2019-05-22T09:48:30.331Z,6.57
2019-05-22T09:51:02.311Z,6.77
2019-05-22T09:53:35.994Z,7.23
2019-05-22T09:56:08.773Z,6.60
2019-05-22T09:58:41.152Z,6.43
2019-05-22T10:01:14.354Z,6.67
2019-05-22T10:03:46.745Z,6.17
2019-05-22T10:06:21.596Z,6.20
2019-05-22T10:08:53.263Z,7.50
2019-05-22T10:11:25.724Z,6.50
2019-05-22T10:13:57.462Z,6.00
2019-05-22T10:16:29.360Z,5.63
2019-05-22T10:19:01.304Z,5.97
2019-05-22T10:21:33.806Z,5.07
2019-05-22T10:24:06.007Z,5.50
2019-05-22T10:26:37.798Z,5.70
2019-05-22T10:29:09.638Z,6.07
2019-05-22T10:31:42.206Z,5.87
2019-05-22T10:34:14.303Z,6.10
2019-05-22T10:36:46.780Z,6.50
2019-05-22T10:39:19.155Z,6.00
2019-05-22T10:41:50.833Z,5.03
2019-05-22T10:44:22.583Z,6.20
2019-05-22T10:46:54.442Z,5.40
2019-05-22T10:49:26.180Z,6.20
2019-05-22T10:51:57.780Z,6.10
2019-05-22T10:54:29.508Z,6.70
2019-05-22T10:57:01.079Z,6.57
2019-05-22T10:59:32.056Z,6.50
2019-05-22T11:02:03.568Z,6.43
2019-05-22T11:04:35.683Z,6.40
2019-05-22T11:07:08.130Z,6.00
2019-05-22T11:09:40.489Z,5.43
2019-05-22T11:12:12.544Z,5.47
2019-05-22T11:14:46.974Z,5.93
2019-05-22T11:17:18.760Z,4.90
2019-05-22T11:19:49.827Z,5.70
2019-05-22T11:22:21.247Z,4.97
2019-05-22T11:24:52.231Z,4.80
2019-05-22T11:27:25.391Z,5.20
2019-05-22T11:29:56.126Z,5.00
2019-05-22T11:32:27.342Z,5.00
2019-05-22T11:34:58.230Z,5.17
2019-05-22T11:37:29.472Z,4.73
2019-05-22T11:40:00.862Z,4.73
2019-05-22T11:42:32.161Z,4.23
2019-05-22T11:45:03.391Z,3.70
2019-05-22T11:47:34.605Z,3.63
2019-05-22T11:50:06.228Z,3.87
2019-05-22T11:52:37.380Z,3.50
2019-05-22T11:55:09.673Z,3.30
2019-05-22T11:57:41.989Z,3.30
2019-05-22T12:00:14.264Z,2.63
2019-05-22T12:02:46.457Z,3.60
2019-05-22T12:05:19.050Z,3.00
2019-05-22T12:07:50.381Z,3.30
2019-05-22T12:10:22.281Z,2.70
2019-05-22T12:12:54.003Z,3.43
2019-05-22T12:15:27.334Z,3.10
2019-05-22T12:17:59.113Z,3.30
2019-05-22T12:20:30.898Z,2.50
2019-05-22T12:23:02.342Z,3.40
2019-05-22T12:25:33.390Z,3.40
2019-05-22T12:28:05.274Z,3.10
2019-05-22T12:30:36.606Z,3.00
2019-05-22T12:33:13.532Z,2.90
2019-05-22T12:35:43.623Z,3.00
2019-05-22T12:38:15.132Z,2.93
2019-05-22T12:40:46.672Z,3.10
2019-05-22T12:43:18.276Z,2.77
2019-05-22T12:45:49.523Z,3.17
2019-05-22T12:48:20.727Z,3.30
2019-05-22T12:50:52.402Z,3.20
2019-05-22T12:53:24.815Z,3.43
2019-05-22T12:55:56.105Z,3.00
2019-05-22T12:58:27.047Z,2.97
2019-05-22T13:00:58.676Z,2.50
2019-05-22T13:03:30.570Z,2.60
2019-05-22T13:06:02.050Z,2.80
2019-05-22T13:08:34.585Z,2.70
2019-05-22T13:11:06.013Z,2.50
2019-05-22T13:13:39.263Z,2.47
2019-05-22T13:16:11.464Z,3.10
2019-05-22T13:18:46.957Z,3.90
2019-05-22T13:21:22.613Z,2.70
2019-05-22T13:23:55.830Z,2.60
2019-05-22T13:26:26.917Z,1.70
2019-05-22T13:28:57.939Z,1.87
2019-05-22T13:31:29.700Z,2.10
2019-05-22T13:34:01.318Z,1.80
2019-05-22T13:36:33.711Z,2.30
2019-05-22T13:39:08.203Z,2.33
2019-05-22T13:41:40.112Z,2.30
2019-05-22T13:44:13.593Z,2.37
2019-05-22T13:46:48.479Z,2.73
2019-05-22T13:49:20.063Z,2.70
2019-05-22T13:51:51.046Z,3.23
2019-05-22T13:54:24.849Z,2.70
2019-05-22T13:56:58.291Z,2.70
2019-05-22T13:59:30.447Z,3.27
2019-05-22T14:02:01.710Z,3.03
2019-05-22T14:04:34.603Z,3.10
2019-05-22T14:07:06.377Z,2.20
2019-05-22T14:09:38.724Z,2.70
2019-05-22T14:12:11.374Z,2.73
2019-05-22T14:14:43.060Z,2.80
2019-05-22T14:17:14.094Z,2.63
2019-05-22T14:19:47.253Z,2.70
2019-05-22T14:22:19.044Z,2.80
2019-05-22T14:24:49.919Z,3.00
2019-05-22T14:27:20.994Z,2.60
2019-05-22T14:29:53.095Z,2.40
2019-05-22T14:32:29.940Z,2.60
2019-05-22T14:34:58.477Z,3.00
2019-05-22T14:37:32.098Z,2.70
2019-05-22T14:40:06.355Z,2.23
2019-05-22T14:42:38.636Z,4.50
2019-05-22T14:45:10.723Z,2.30
2019-05-22T14:47:42.037Z,2.70
2019-05-22T14:50:14.371Z,2.93
2019-05-22T14:52:45.608Z,3.10
2019-05-22T14:55:17.705Z,2.90
2019-05-22T14:57:49.871Z,3.00
2019-05-22T15:00:25.242Z,2.60
2019-05-22T15:02:58.775Z,3.13
2019-05-22T15:05:29.666Z,3.53
2019-05-22T15:08:00.645Z,3.77
2019-05-22T15:10:32.184Z,2.97
2019-05-22T15:13:03.933Z,2.70
2019-05-22T15:15:40.171Z,3.47
2019-05-22T15:18:08.560Z,3.27
2019-05-22T15:20:47.183Z,3.40
2019-05-22T15:23:19.638Z,3.70
2019-05-22T15:25:54.571Z,3.60
2019-05-22T15:28:27.831Z,3.50
2019-05-22T15:30:58.939Z,3.60
2019-05-22T15:33:30.677Z,3.47
2019-05-22T15:36:09.424Z,4.63
2019-05-22T15:38:43.994Z,3.60
2019-05-22T15:41:15.623Z,3.60
2019-05-22T15:44:12.246Z,3.60
2019-05-22T15:47:53.340Z,3.70
2019-05-22T15:50:46.454Z,4.80
2019-05-22T15:53:38.086Z,4.30
2019-05-22T15:56:39.570Z,4.63
2019-05-22T15:59:41.538Z,4.67
2019-05-22T16:02:44.936Z,4.60
2019-05-22T16:05:18.219Z,4.40
2019-05-22T16:07:50.398Z,4.90
2019-05-22T16:10:25.734Z,5.23
2019-05-22T16:12:57.447Z,5.77
2019-05-22T16:15:30.832Z,5.10
2019-05-22T16:18:11.449Z,4.90
2019-05-22T16:20:39.810Z,5.27
2019-05-22T16:23:11.545Z,4.97
2019-05-22T16:25:43.160Z,4.90
2019-05-22T16:28:15.221Z,4.93
2019-05-22T16:30:48.503Z,4.97
2019-05-22T16:33:20.475Z,5.47
2019-05-22T16:35:52.037Z,5.00
2019-05-22T16:38:25.667Z,5.00
2019-05-22T16:40:57.052Z,4.87
2019-05-22T16:43:47.350Z,4.80
2019-05-22T16:46:02.885Z,4.40
2019-05-22T16:48:36.764Z,4.93
2019-05-22T16:51:10.056Z,5.20
2019-05-22T16:53:40.921Z,4.60
2019-05-22T16:56:12.995Z,4.60
2019-05-22T16:58:44.143Z,5.07
2019-05-22T17:01:16.776Z,4.90
2019-05-22T17:03:51.742Z,5.50
2019-05-22T17:06:23.675Z,4.77
2019-05-22T17:08:59.589Z,5.47
2019-05-22T17:11:32.010Z,5.40
2019-05-22T17:14:06.942Z,5.30
2019-05-22T17:16:41.308Z,5.50
2019-05-22T17:19:26.474Z,5.33
2019-05-22T17:21:46.178Z,4.70
2019-05-22T17:24:18.090Z,5.43
2019-05-22T17:26:51.229Z,4.77
2019-05-22T17:29:22.415Z,5.10
2019-05-22T17:31:54.528Z,5.20
2019-05-22T17:34:35.459Z,4.70
2019-05-22T17:37:13.750Z,4.53
2019-05-22T17:39:48.539Z,5.20
2019-05-22T17:42:23.597Z,5.10
2019-05-22T17:44:56.022Z,4.63
2019-05-22T17:47:30.943Z,5.10
2019-05-22T17:50:03.358Z,5.23
2019-05-22T17:52:34.904Z,5.00
2019-05-22T17:55:08.598Z,5.00
2019-05-22T17:57:40.446Z,5.27
2019-05-22T18:00:18.823Z,5.27
2019-05-22T18:02:49.956Z,5.27
2019-05-22T18:05:21.630Z,5.80
2019-05-22T18:07:52.577Z,5.90
2019-05-22T18:10:24.139Z,5.77
2019-05-22T18:12:55.533Z,5.90
2019-05-22T18:15:26.890Z,5.83
2019-05-22T18:17:59.880Z,6.00
2019-05-22T18:21:04.160Z,6.70
2019-05-22T18:37:14.061Z,9.17
2019-05-22T18:39:45.054Z,9.03
2019-05-22T18:42:16.558Z,9.20
2019-05-22T18:44:47.501Z,15.60
2019-05-22T18:47:18.518Z,11.27
2019-05-22T18:49:49.389Z,11.93
2019-05-22T18:52:20.697Z,20.87
2019-05-22T18:54:51.897Z,15.47
2019-05-22T18:57:22.948Z,16.97
2019-05-22T19:00:00.220Z,17.27
2019-05-22T19:02:26.757Z,18.17
2019-05-22T19:04:57.614Z,13.83
2019-05-22T19:07:28.398Z,12.57
2019-05-22T19:09:59.308Z,20.13
2019-05-22T19:12:31.322Z,16.37
2019-05-22T19:15:02.368Z,16.83
2019-05-22T19:17:33.956Z,16.13
2019-05-22T19:20:05.714Z,15.30
2019-05-22T19:22:37.248Z,14.10
2019-05-22T19:25:08.603Z,12.10
2019-05-22T19:27:39.611Z,11.43
2019-05-22T19:30:12.110Z,9.00
2019-05-22T19:32:43.301Z,13.03
2019-05-22T19:35:14.840Z,12.03
2019-05-22T19:37:47.060Z,11.97
2019-05-22T19:40:19.953Z,14.57
2019-05-22T19:42:51.751Z,15.27
2019-05-22T19:45:23.753Z,13.57
2019-05-22T19:47:57.170Z,14.03
2019-05-22T19:50:29.488Z,13.60
2019-05-22T19:53:17.592Z,14.57
2019-05-22T19:55:35.242Z,16.63
2019-05-22T19:58:09.820Z,15.73
2019-05-22T20:00:42.461Z,17.73
2019-05-22T20:03:17.510Z,15.47
2019-05-22T20:05:48.775Z,16.20
2019-05-22T20:08:19.976Z,15.87
2019-05-22T20:10:51.624Z,17.67
2019-05-22T20:13:24.945Z,18.53
2019-05-22T20:15:55.980Z,18.40
2019-05-22T20:18:27.015Z,17.23
2019-05-22T20:20:58.569Z,17.17
2019-05-22T20:23:35.933Z,17.23
2019-05-22T20:26:03.593Z,17.83
2019-05-22T20:28:43.161Z,17.37
2019-05-22T20:31:14.538Z,17.20
2019-05-22T20:33:45.551Z,16.90
2019-05-22T20:36:17.273Z,17.27
2019-05-22T20:38:51.549Z,18.77
2019-05-22T20:41:22.626Z,19.23
2019-05-22T20:43:54.134Z,19.57
2019-05-22T20:46:25.420Z,20.73
2019-05-22T20:48:57.401Z,19.27
2019-05-22T20:51:28.327Z,20.80
2019-05-22T20:54:00.278Z,20.87
2019-05-22T20:56:32.126Z,22.77
2019-05-22T20:59:03.649Z,22.37
2019-05-22T21:01:34.912Z,23.33
2019-05-22T21:04:11.216Z,23.17
2019-05-22T21:06:49.117Z,25.90
2019-05-22T21:09:20.643Z,27.10
2019-05-22T21:11:51.916Z,26.87
2019-05-22T21:14:24.289Z,29.10
2019-05-22T21:16:55.935Z,30.13
2019-05-22T21:19:28.611Z,31.37
2019-05-22T21:21:59.647Z,30.07
2019-05-22T21:24:30.507Z,27.13
2019-05-22T21:27:01.740Z,28.90
2019-05-22T21:29:33.449Z,29.70
2019-05-22T21:32:06.333Z,28.67
2019-05-22T21:34:38.221Z,29.47
2019-05-22T21:37:10.181Z,30.93
2019-05-22T21:39:42.264Z,29.00
2019-05-22T21:42:13.363Z,27.23
2019-05-22T21:44:44.567Z,28.40
2019-05-22T21:47:16.752Z,29.50
2019-05-22T21:49:48.073Z,29.00
2019-05-22T21:52:19.771Z,30.23
2019-05-22T21:54:50.659Z,31.80
2019-05-22T21:57:21.859Z,31.10
2019-05-22T21:59:53.890Z,32.67
2019-05-22T22:02:33.163Z,29.67
2019-05-22T22:05:05.195Z,27.70
2019-05-22T22:07:36.656Z,27.03
2019-05-22T22:10:08.179Z,27.90
2019-05-22T22:12:39.797Z,26.13
2019-05-22T22:15:12.523Z,28.13
2019-05-22T22:17:45.858Z,27.67
2019-05-22T22:20:18.954Z,28.33
2019-05-22T22:22:51.600Z,29.40
2019-05-22T22:25:24.043Z,32.63
2019-05-22T22:27:55.355Z,33.90
2019-05-22T22:30:34.832Z,34.50
2019-05-22T22:33:10.265Z,33.13
2019-05-22T22:35:41.523Z,32.77
2019-05-22T22:38:12.929Z,35.60
2019-05-22T22:40:44.099Z,36.70
2019-05-22T22:43:15.636Z,33.43
2019-05-22T22:46:05.825Z,32.90
2019-05-22T22:48:39.693Z,32.30
2019-05-22T22:51:13.107Z,35.87
2019-05-22T22:53:45.905Z,36.60
2019-05-22T22:56:19.476Z,35.67
2019-05-22T22:58:50.494Z,36.20
2019-05-22T23:01:27.547Z,31.83
2019-05-22T23:04:01.314Z,29.50
2019-05-22T23:06:36.055Z,31.27
2019-05-22T23:09:08.475Z,31.63
2019-05-22T23:11:43.515Z,31.73
2019-05-22T23:14:15.635Z,34.33
2019-05-22T23:16:47.107Z,36.40
2019-05-22T23:19:38.743Z,33.13
2019-05-22T23:22:12.876Z,32.83
2019-05-22T23:24:44.568Z,31.37
2019-05-22T23:27:17.096Z,34.53
2019-05-22T23:29:49.426Z,32.73
2019-05-22T23:32:21.392Z,32.63
2019-05-22T23:34:52.341Z,32.10
2019-05-22T23:37:24.383Z,30.87
2019-05-22T23:39:56.146Z,30.03
2019-05-22T23:42:34.556Z,29.37
2019-05-22T23:45:10.622Z,29.00
2019-05-22T23:47:53.528Z,24.83
2019-05-22T23:50:25.496Z,24.90
2019-05-22T23:52:57.038Z,22.27
2019-05-22T23:55:29.673Z,20.87
2019-05-22T23:58:05.316Z,20.90
